createdAt,value
2019-01-18T00:00:48.659Z,99.90
2019-01-18T00:03:51.826Z,99.90
2019-01-18T00:06:55.138Z,99.90
2019-01-18T00:09:58.214Z,99.90
2019-01-18T00:13:01.350Z,99.90
2019-01-18T00:16:04.506Z,99.90
2019-01-18T00:19:07.639Z,99.90
2019-01-18T00:22:10.800Z,99.90
2019-01-18T00:25:13.999Z,99.90
2019-01-18T00:28:17.182Z,99.90
2019-01-18T00:31:20.342Z,99.90
2019-01-18T00:34:23.570Z,99.90
2019-01-18T00:37:26.802Z,99.90
2019-01-18T00:40:29.886Z,99.90
2019-01-18T00:43:34.682Z,99.90
2019-01-18T00:46:37.815Z,99.90
2019-01-18T00:49:40.944Z,99.90
2019-01-18T00:52:43.990Z,99.90
2019-01-18T00:55:47.168Z,99.90
2019-01-18T00:58:50.177Z,99.90
2019-01-18T01:01:53.421Z,99.90
2019-01-18T01:04:57.398Z,99.90
2019-01-18T01:08:00.521Z,99.90
2019-01-18T01:11:03.574Z,99.90
2019-01-18T01:14:07.218Z,99.90
2019-01-18T01:17:10.478Z,99.90
2019-01-18T01:20:15.319Z,99.90
2019-01-18T01:23:18.612Z,99.90
2019-01-18T01:26:21.706Z,99.90
2019-01-18T01:29:24.894Z,99.90
2019-01-18T01:32:28.693Z,99.90
2019-01-18T01:35:33.538Z,99.90
2019-01-18T01:38:36.838Z,99.90
2019-01-18T01:41:39.933Z,99.90
2019-01-18T01:44:43.106Z,99.90
2019-01-18T01:47:46.218Z,99.90
2019-01-18T01:50:49.309Z,99.90
2019-01-18T01:53:52.502Z,99.90
2019-01-18T01:56:55.598Z,99.90
2019-01-18T01:59:58.686Z,99.90
2019-01-18T02:03:01.885Z,99.90
2019-01-18T02:06:05.070Z,99.90
2019-01-18T02:09:08.382Z,99.90
2019-01-18T02:12:11.683Z,99.90
2019-01-18T02:15:19.687Z,99.90
2019-01-18T02:18:22.774Z,99.90
2019-01-18T02:21:25.971Z,99.90
2019-01-18T02:24:29.162Z,99.90
2019-01-18T02:27:32.362Z,99.90
2019-01-18T02:30:35.542Z,99.90
2019-01-18T02:33:38.674Z,99.90
2019-01-18T02:36:41.844Z,99.90
2019-01-18T02:39:45.075Z,99.90
2019-01-18T02:42:48.144Z,99.90
2019-01-18T02:45:51.374Z,99.90
2019-01-18T02:48:54.422Z,99.90
2019-01-18T02:51:57.666Z,99.90
2019-01-18T02:55:00.809Z,99.90
2019-01-18T02:58:04.041Z,99.90
2019-01-18T03:01:07.198Z,99.90
2019-01-18T03:04:10.478Z,99.90
2019-01-18T03:07:13.585Z,99.90
2019-01-18T03:10:22.037Z,99.90
2019-01-18T03:13:25.099Z,99.90
2019-01-18T03:16:28.346Z,99.90
2019-01-18T03:19:31.467Z,99.90
2019-01-18T03:22:34.722Z,99.90
2019-01-18T03:25:37.780Z,99.90
2019-01-18T03:28:41.122Z,99.90
2019-01-18T03:31:44.267Z,99.90
2019-01-18T03:34:47.926Z,99.90
2019-01-18T03:37:50.965Z,99.90
2019-01-18T03:40:54.098Z,99.90
2019-01-18T03:43:57.156Z,99.90
2019-01-18T03:47:00.394Z,99.90
2019-01-18T03:50:04.364Z,99.90
2019-01-18T03:53:07.671Z,99.90
2019-01-18T03:56:10.751Z,99.90
2019-01-18T03:59:14.915Z,99.90
2019-01-18T04:02:17.962Z,99.90
2019-01-18T04:05:21.091Z,99.90
2019-01-18T04:08:26.056Z,99.90
2019-01-18T04:11:29.230Z,99.90
2019-01-18T04:14:32.278Z,99.90
2019-01-18T04:17:35.514Z,99.90
2019-01-18T04:20:38.870Z,99.90
2019-01-18T04:23:42.023Z,99.90
2019-01-18T04:26:45.165Z,99.90
2019-01-18T04:29:48.423Z,99.90
2019-01-18T04:32:51.551Z,99.90
2019-01-18T04:35:54.782Z,99.90
2019-01-18T04:38:57.946Z,99.90
2019-01-18T04:42:01.078Z,99.90
2019-01-18T04:45:06.378Z,99.90
2019-01-18T04:48:09.514Z,99.90
2019-01-18T04:51:12.671Z,99.90
2019-01-18T04:54:15.902Z,99.90
2019-01-18T04:57:19.055Z,99.90
2019-01-18T05:00:24.058Z,99.90
2019-01-18T05:03:27.297Z,99.90
2019-01-18T05:06:30.493Z,99.90
2019-01-18T05:09:33.582Z,99.90
2019-01-18T05:12:36.774Z,99.90
2019-01-18T05:15:39.866Z,99.90
2019-01-18T05:18:42.962Z,99.90
2019-01-18T05:21:46.055Z,99.90
2019-01-18T05:24:49.690Z,99.90
2019-01-18T05:27:52.951Z,99.90
2019-01-18T05:30:57.269Z,99.90
2019-01-18T05:34:00.469Z,99.90
2019-01-18T05:37:03.770Z,99.90
2019-01-18T05:40:08.494Z,99.90
2019-01-18T05:43:11.594Z,99.90
2019-01-18T05:46:14.682Z,99.90
2019-01-18T05:49:17.894Z,99.90
2019-01-18T05:52:20.970Z,99.90
2019-01-18T05:55:24.167Z,99.90
2019-01-18T05:58:27.357Z,99.90
2019-01-18T06:01:30.625Z,99.90
2019-01-18T06:04:33.751Z,99.90
2019-01-18T06:07:36.951Z,99.90
2019-01-18T06:10:40.145Z,99.90
2019-01-18T06:13:43.345Z,99.90
2019-01-18T06:16:46.426Z,99.90
2019-01-18T06:19:49.529Z,99.90
2019-01-18T06:22:52.929Z,99.90
2019-01-18T06:25:56.161Z,99.90
2019-01-18T06:28:59.311Z,99.90
2019-01-18T06:32:02.661Z,99.90
2019-01-18T06:35:06.316Z,99.90
2019-01-18T06:38:09.558Z,99.90
2019-01-18T06:41:24.878Z,99.90
2019-01-18T06:44:28.130Z,99.90
2019-01-18T06:47:31.486Z,99.90
2019-01-18T06:50:34.756Z,99.90
2019-01-18T06:53:37.878Z,99.90
2019-01-18T06:56:41.326Z,99.90
2019-01-18T06:59:44.470Z,99.90
2019-01-18T07:02:48.123Z,99.90
2019-01-18T07:05:51.166Z,99.90
2019-01-18T07:08:54.638Z,99.90
2019-01-18T07:11:57.710Z,99.90
2019-01-18T07:15:00.971Z,99.90
2019-01-18T07:18:05.303Z,99.90
2019-01-18T07:21:08.587Z,99.90
2019-01-18T07:24:11.822Z,99.90
2019-01-18T07:27:15.166Z,99.90
2019-01-18T07:30:20.741Z,99.90
2019-01-18T07:33:23.942Z,99.90
2019-01-18T07:36:27.007Z,99.90
2019-01-18T07:39:30.191Z,99.90
2019-01-18T07:42:33.248Z,99.90
2019-01-18T07:45:36.474Z,99.90
2019-01-18T07:48:39.631Z,99.90
2019-01-18T07:51:42.846Z,99.90
2019-01-18T07:54:45.925Z,99.90
2019-01-18T07:57:49.473Z,99.90
2019-01-18T08:00:52.618Z,99.90
2019-01-18T08:03:56.283Z,99.90
2019-01-18T08:06:59.418Z,99.90
2019-01-18T08:10:02.791Z,99.90
2019-01-18T08:13:06.014Z,99.90
2019-01-18T08:16:09.254Z,99.90
2019-01-18T08:19:12.598Z,99.90
2019-01-18T08:22:16.114Z,99.90
2019-01-18T08:25:19.406Z,99.90
2019-01-18T08:28:22.959Z,99.90
2019-01-18T08:31:29.124Z,99.90
2019-01-18T08:34:31.202Z,99.90
2019-01-18T08:37:34.442Z,99.90
2019-01-18T08:40:39.557Z,99.90
2019-01-18T08:43:42.677Z,99.90
2019-01-18T08:46:45.915Z,99.90
2019-01-18T08:49:49.066Z,99.90
2019-01-18T08:52:52.232Z,99.90
2019-01-18T08:55:55.250Z,99.90
2019-01-18T08:58:58.450Z,99.90
2019-01-18T09:02:01.539Z,99.90
2019-01-18T09:05:08.766Z,99.90
2019-01-18T09:08:11.826Z,99.90
2019-01-18T09:11:15.019Z,99.90
2019-01-18T09:14:19.590Z,99.90
2019-01-18T09:17:23.050Z,99.90
2019-01-18T09:20:27.270Z,99.90
2019-01-18T09:23:30.359Z,99.90
2019-01-18T09:26:33.455Z,99.90
2019-01-18T09:29:36.646Z,99.90
2019-01-18T09:32:39.945Z,99.90
2019-01-18T09:35:43.346Z,99.90
2019-01-18T09:38:46.434Z,99.90
2019-01-18T09:41:49.530Z,99.90
2019-01-18T09:44:52.626Z,99.90
2019-01-18T09:47:55.824Z,99.90
2019-01-18T09:50:58.916Z,99.90
2019-01-18T09:54:02.210Z,99.90
2019-01-18T09:57:05.399Z,99.90
2019-01-18T10:00:17.748Z,99.90
2019-01-18T10:03:20.902Z,99.90
2019-01-18T10:06:24.227Z,99.90
2019-01-18T10:09:27.302Z,99.90
2019-01-18T10:12:30.399Z,99.90
2019-01-18T10:15:40.269Z,99.90
2019-01-18T10:18:43.334Z,99.90
2019-01-18T10:21:46.676Z,99.90
2019-01-18T10:24:49.966Z,99.90
2019-01-18T10:27:53.184Z,99.90
2019-01-18T10:30:56.468Z,99.90
2019-01-18T10:33:59.718Z,99.90
2019-01-18T10:37:03.167Z,99.90
2019-01-18T10:40:07.026Z,99.90
2019-01-18T10:43:10.382Z,99.90
2019-01-18T10:46:13.525Z,99.90
2019-01-18T10:49:16.690Z,99.90
2019-01-18T10:52:19.999Z,99.90
2019-01-18T10:55:23.456Z,99.90
2019-01-18T10:58:27.708Z,99.90
2019-01-18T11:01:31.070Z,99.90
2019-01-18T11:04:34.126Z,99.90
2019-01-18T11:07:37.675Z,99.90
2019-01-18T11:10:40.749Z,99.90
2019-01-18T11:13:44.378Z,99.90
2019-01-18T11:16:47.545Z,99.90
2019-01-18T11:19:50.764Z,99.90
2019-01-18T11:22:56.166Z,99.90
2019-01-18T11:25:59.290Z,99.90
2019-01-18T11:29:02.464Z,99.90
2019-01-18T11:32:06.030Z,99.90
2019-01-18T11:35:09.350Z,99.90
2019-01-18T11:38:12.589Z,99.90
2019-01-18T11:41:15.642Z,99.90
2019-01-18T11:44:18.906Z,99.90
2019-01-18T11:47:22.237Z,99.90
2019-01-18T11:50:25.582Z,99.90
2019-01-18T11:53:28.830Z,99.90
2019-01-18T11:56:31.968Z,99.90
2019-01-18T11:59:35.120Z,99.90
2019-01-18T12:02:38.366Z,99.90
2019-01-18T12:05:41.509Z,99.90
2019-01-18T12:08:44.814Z,99.90
2019-01-18T12:11:47.898Z,98.90
2019-01-18T12:14:51.458Z,99.70
2019-01-18T12:17:54.610Z,99.90
2019-01-18T12:20:57.962Z,99.90
2019-01-18T12:24:01.190Z,99.80
2019-01-18T12:27:04.326Z,94.80
2019-01-18T12:30:12.106Z,98.60
2019-01-18T12:33:15.182Z,96.50
2019-01-18T12:36:18.378Z,94.10
2019-01-18T12:39:31.606Z,94.90
2019-01-18T12:42:34.803Z,93.70
2019-01-18T12:45:38.102Z,95.90
2019-01-18T12:48:41.196Z,94.10
2019-01-18T12:51:44.286Z,91.80
2019-01-18T12:54:47.378Z,98.10
2019-01-18T12:57:51.704Z,99.30
2019-01-18T13:00:55.103Z,97.00
2019-01-18T13:03:58.291Z,93.20
2019-01-18T13:07:01.491Z,94.70
2019-01-18T13:10:11.603Z,93.10
2019-01-18T13:13:11.053Z,97.10
2019-01-18T13:16:32.157Z,98.40
2019-01-18T13:19:35.250Z,96.50
2019-01-18T13:22:38.446Z,97.80
2019-01-18T13:25:41.544Z,99.90
2019-01-18T13:28:44.635Z,99.90
2019-01-18T13:31:47.821Z,99.90
2019-01-18T13:34:51.022Z,99.90
2019-01-18T13:37:54.114Z,99.90
2019-01-18T13:40:57.310Z,99.90
2019-01-18T13:44:00.503Z,99.90
2019-01-18T13:47:03.698Z,99.90
2019-01-18T13:50:08.710Z,99.90
2019-01-18T13:53:11.834Z,99.90
2019-01-18T13:56:15.022Z,99.90
2019-01-18T13:59:18.118Z,99.90
2019-01-18T14:02:21.210Z,99.90
2019-01-18T14:05:24.506Z,99.90
2019-01-18T14:08:27.699Z,99.90
2019-01-18T14:11:30.897Z,99.90
2019-01-18T14:14:34.498Z,99.90
2019-01-18T14:17:37.973Z,99.90
2019-01-18T14:20:40.994Z,99.90
2019-01-18T14:23:44.155Z,99.90
2019-01-18T14:26:47.283Z,99.90
2019-01-18T14:29:50.835Z,99.90
2019-01-18T14:32:55.711Z,99.90
2019-01-18T14:35:59.170Z,99.90
2019-01-18T14:39:04.117Z,99.90
2019-01-18T14:42:07.478Z,99.90
2019-01-18T14:45:22.428Z,99.90
2019-01-18T14:48:25.753Z,99.90
2019-01-18T14:51:28.918Z,99.90
2019-01-18T14:54:32.325Z,99.90
2019-01-18T14:57:35.419Z,99.90
2019-01-18T15:00:39.359Z,99.90
2019-01-18T15:03:42.766Z,99.90
2019-01-18T15:06:46.069Z,99.90
2019-01-18T15:09:49.327Z,99.90
2019-01-18T15:12:57.705Z,99.90
2019-01-18T15:16:00.930Z,99.90
2019-01-18T15:19:04.378Z,99.90
2019-01-18T15:22:07.429Z,99.90
2019-01-18T15:25:10.554Z,99.90
2019-01-18T15:28:13.611Z,99.90
2019-01-18T15:31:16.874Z,99.90
2019-01-18T15:34:20.002Z,99.90
2019-01-18T15:37:23.136Z,99.90
2019-01-18T15:40:27.278Z,99.90
2019-01-18T15:43:30.758Z,99.90
2019-01-18T15:46:33.913Z,99.90
2019-01-18T15:49:37.174Z,99.90
2019-01-18T15:52:40.402Z,99.90
2019-01-18T15:55:44.155Z,99.90
2019-01-18T15:58:47.198Z,99.90
2019-01-18T16:01:50.442Z,99.90
2019-01-18T16:04:53.486Z,99.90
2019-01-18T16:07:57.042Z,99.90
2019-01-18T16:11:00.190Z,99.90
2019-01-18T16:14:03.530Z,99.90
2019-01-18T16:17:11.672Z,99.90
2019-01-18T16:20:16.436Z,99.90
2019-01-18T16:23:19.521Z,99.90
2019-01-18T16:26:22.770Z,99.90
2019-01-18T16:29:25.809Z,99.90
2019-01-18T16:32:29.462Z,99.90
2019-01-18T16:35:32.711Z,99.90
2019-01-18T16:38:36.370Z,99.90
2019-01-18T16:41:39.711Z,99.90
2019-01-18T16:44:43.053Z,99.90
2019-01-18T16:47:46.106Z,99.90
2019-01-18T16:50:49.401Z,99.90
2019-01-18T16:53:52.802Z,99.90
2019-01-18T16:56:56.013Z,99.90
2019-01-18T16:59:59.090Z,99.90
2019-01-18T17:03:02.291Z,99.90
2019-01-18T17:06:06.819Z,99.90
2019-01-18T17:09:10.216Z,99.90
2019-01-18T17:12:13.407Z,99.90
2019-01-18T17:15:16.602Z,99.90
2019-01-18T17:18:21.494Z,99.90
2019-01-18T17:21:26.331Z,99.90
2019-01-18T17:24:29.370Z,99.90
2019-01-18T17:27:32.658Z,99.90
2019-01-18T17:30:35.753Z,99.90
2019-01-18T17:33:38.722Z,99.90
2019-01-18T17:37:11.638Z,99.90
2019-01-18T17:40:30.542Z,99.90
2019-01-18T17:44:28.935Z,99.90
2019-01-18T17:48:19.714Z,99.90
2019-01-18T17:51:49.722Z,99.90
2019-01-18T17:55:39.450Z,99.90
2019-01-18T17:59:32.914Z,99.90
2019-01-18T18:03:15.142Z,99.90
2019-01-18T18:06:58.425Z,99.90
2019-01-18T18:10:45.982Z,99.90
2019-01-18T18:14:06.036Z,99.90
2019-01-18T18:17:40.426Z,99.90
2019-01-18T18:21:23.714Z,99.90
2019-01-18T18:25:08.550Z,99.90
2019-01-18T18:28:54.284Z,99.90
2019-01-18T18:32:36.628Z,99.90
2019-01-18T18:35:56.072Z,99.90
2019-01-18T18:39:56.557Z,99.90
2019-01-18T18:43:16.496Z,99.90
2019-01-18T18:47:10.410Z,99.90
2019-01-18T18:50:46.542Z,99.90
2019-01-18T18:54:20.610Z,99.90
2019-01-18T18:57:37.170Z,99.90
2019-01-18T19:00:57.098Z,99.90
2019-01-18T19:04:19.611Z,99.90
2019-01-18T19:07:59.778Z,99.90
2019-01-18T19:11:49.253Z,99.90
2019-01-18T19:15:31.156Z,99.90
2019-01-18T19:18:50.462Z,99.90
2019-01-18T19:22:31.146Z,99.90
2019-01-18T19:25:49.590Z,99.90
2019-01-18T19:29:37.378Z,99.90
2019-01-18T19:33:01.515Z,99.90
2019-01-18T19:37:04.256Z,99.90
2019-01-18T19:40:31.054Z,99.90
2019-01-18T19:44:28.778Z,99.90
2019-01-18T19:47:49.738Z,99.90
2019-01-18T19:51:35.985Z,99.90
2019-01-18T19:55:04.842Z,99.90
2019-01-18T19:59:19.823Z,99.90
2019-01-18T20:02:52.746Z,99.90
2019-01-18T20:06:26.938Z,99.90
2019-01-18T20:10:06.489Z,99.90
2019-01-18T20:14:12.836Z,99.90
2019-01-18T20:17:59.163Z,99.90
2019-01-18T20:21:42.039Z,99.90
2019-01-18T20:25:20.406Z,99.90
2019-01-18T20:28:46.990Z,99.90
2019-01-18T20:32:32.027Z,99.90
2019-01-18T20:36:13.114Z,99.90
2019-01-18T20:40:03.754Z,99.90
2019-01-18T20:43:34.255Z,99.90
2019-01-18T20:47:00.053Z,99.90
2019-01-18T20:50:57.814Z,99.90
2019-01-18T20:54:27.674Z,99.90
2019-01-18T20:57:40.098Z,99.90
2019-01-18T21:01:13.698Z,99.90
2019-01-18T21:05:00.207Z,99.90
2019-01-18T21:08:42.106Z,99.90
2019-01-18T21:12:18.075Z,99.90
2019-01-18T21:15:40.929Z,99.90
2019-01-18T21:19:09.418Z,99.90
2019-01-18T21:22:46.810Z,99.90
2019-01-18T21:26:31.482Z,99.90
2019-01-18T21:30:10.411Z,99.90
2019-01-18T21:33:38.808Z,99.90
2019-01-18T21:37:32.274Z,99.90
2019-01-18T21:41:12.846Z,99.90
2019-01-18T21:45:05.567Z,99.90
2019-01-18T21:48:42.486Z,99.90
2019-01-18T21:52:23.874Z,99.90
2019-01-18T21:56:40.449Z,99.90
2019-01-18T22:00:07.718Z,99.90
2019-01-18T22:03:33.685Z,99.90
2019-01-18T22:07:29.755Z,99.90
2019-01-18T22:10:46.015Z,99.90
2019-01-18T22:14:29.258Z,99.90
2019-01-18T22:17:45.246Z,99.90
2019-01-18T22:21:35.042Z,99.90
2019-01-18T22:25:22.361Z,99.90
2019-01-18T22:28:46.245Z,99.90
2019-01-18T22:32:06.611Z,99.90
2019-01-18T22:35:56.130Z,99.90
2019-01-18T22:39:35.671Z,99.90
2019-01-18T22:43:07.645Z,99.90
2019-01-18T22:46:42.578Z,99.90
2019-01-18T22:50:19.180Z,99.90
2019-01-18T22:53:49.695Z,99.90
2019-01-18T22:57:09.034Z,99.90
2019-01-18T23:01:05.571Z,99.90
2019-01-18T23:04:36.606Z,99.90
2019-01-18T23:08:04.634Z,99.90
2019-01-18T23:11:33.074Z,99.90
2019-01-18T23:14:52.987Z,99.90
2019-01-18T23:18:20.418Z,99.90
2019-01-18T23:21:47.894Z,99.90
2019-01-18T23:25:26.554Z,99.90
2019-01-18T23:28:57.866Z,99.90
2019-01-18T23:32:33.826Z,99.90
2019-01-18T23:35:50.762Z,99.90
2019-01-18T23:39:19.393Z,99.90
2019-01-18T23:42:55.342Z,99.90
2019-01-18T23:46:21.428Z,99.90
2019-01-18T23:50:01.757Z,99.90
2019-01-18T23:53:16.076Z,99.90
2019-01-18T23:57:16.181Z,99.90
